Time;durP1;ratioP1;P1;durP2;ratioP2;P2;SDS_P1;SDS_P2;PMS_P1;PMS_P2;Temp;Humidity;BMP_temperature;BMP_pressure;BME280_temperature;BME280_humidity;BME280_pressure;Samples;Min_cycle;Max_cycle;Signal;HPM_P1;HPM_P2
2022/12/10 00:00:18;;;;;;;;;16.00;14.33;;;;;;;;5044466;28;13656;-73
2022/12/10 00:02:43;;;;;;;;;16.00;16.00;;;;;;;;5045036;28;13527;-74
2022/12/10 00:05:09;;;;;;;;;16.00;16.00;;;;;;;;5045035;28;13524;-74
2022/12/10 00:07:34;;;;;;;;;16.00;16.00;;;;;;;;5044885;28;13544;-74
2022/12/10 00:09:59;;;;;;;;;17.33;17.33;;;;;;;;5044865;28;13510;-73
2022/12/10 00:12:24;;;;;;;;;22.00;18.00;;;;;;;;5044768;28;13662;-74
2022/12/10 00:14:50;;;;;;;;;24.50;23.00;;;;;;;;5044525;28;13534;-73
2022/12/10 00:17:15;;;;;;;;;22.33;19.67;;;;;;;;5044587;28;13704;-73
2022/12/10 00:19:40;;;;;;;;;17.50;17.50;;;;;;;;5044812;28;13570;-73
2022/12/10 00:22:06;;;;;;;;;19.00;18.67;;;;;;;;5044864;28;14222;-73
2022/12/10 00:24:31;;;;;;;;;20.67;18.00;;;;;;;;5044829;28;13610;-73
2022/12/10 00:26:56;;;;;;;;;25.75;21.75;;;;;;;;5045246;28;13656;-73
2022/12/10 00:29:21;;;;;;;;;21.33;18.67;;;;;;;;5048286;28;13565;-74
2022/12/10 00:31:47;;;;;;;;;23.33;20.67;;;;;;;;5048083;28;13755;-74
2022/12/10 00:34:13;;;;;;;;;18.00;16.75;;;;;;;;5048450;28;14221;-74
2022/12/10 00:36:44;;;;;;;;;17.00;16.50;;;;;;;;5048513;28;13610;-74
2022/12/10 00:39:10;;;;;;;;;17.20;16.40;;;;;;;;5046901;28;13529;-74
2022/12/10 00:41:36;;;;;;;;;16.60;15.80;;;;;;;;5048258;28;13733;-74
2022/12/10 00:44:01;;;;;;;;;16.33;16.00;;;;;;;;5048198;28;13513;-74
2022/12/10 00:46:26;;;;;;;;;16.50;13.50;;;;;;;;5048438;28;13540;-74
2022/12/10 00:48:51;;;;;;;;;15.00;13.33;;;;;;;;5048614;28;13663;-74
2022/12/10 00:51:19;;;;;;;;;16.00;15.33;;;;;;;;5047775;28;13569;-74
2022/12/10 00:53:45;;;;;;;;;19.60;16.60;;;;;;;;5048232;28;13660;-74
2022/12/10 00:56:11;;;;;;;;;14.60;13.00;;;;;;;;5046625;28;13552;-74
2022/12/10 00:58:37;;;;;;;;;17.00;16.00;;;;;;;;5048190;28;13564;-74
2022/12/10 01:01:29;;;;;;;;;16.80;16.80;;;;;;;;5047662;28;13667;-74
2022/12/10 01:03:56;;;;;;;;;16.75;12.75;;;;;;;;5045516;28;13588;-74
2022/12/10 01:06:25;;;;;;;;;15.00;11.00;;;;;;;;5047832;28;13593;-75
2022/12/10 01:08:51;;;;;;;;;12.00;12.00;;;;;;;;5047742;28;13794;-75
2022/12/10 01:11:18;;;;;;;;;14.00;12.00;;;;;;;;5047281;28;13792;-75
2022/12/10 01:13:44;;;;;;;;;15.50;14.50;;;;;;;;5047567;28;13534;-75
2022/12/10 01:16:10;;;;;;;;;15.75;15.25;;;;;;;;5045608;28;14285;-75
2022/12/10 01:18:35;;;;;;;;;15.00;13.20;;;;;;;;5045745;28;13717;-74
2022/12/10 01:21:05;;;;;;;;;14.00;14.00;;;;;;;;5047441;28;13545;-74
2022/12/10 01:23:34;;;;;;;;;9.25;9.25;;;;;;;;5044202;22;13742;-83
2022/12/10 01:26:01;;;;;;;;;16.50;12.00;;;;;;;;5028851;28;13500;-82
2022/12/10 01:28:27;;;;;;;;;15.00;12.00;;;;;;;;5028141;28;13672;-83
2022/12/10 01:30:52;;;;;;;;;13.75;12.50;;;;;;;;5028611;28;13886;-83
2022/12/10 01:33:18;;;;;;;;;18.33;14.67;;;;;;;;5028697;28;13638;-82
2022/12/10 01:35:43;;;;;;;;;12.00;12.00;;;;;;;;5028612;28;13641;-81
2022/12/10 01:38:08;;;;;;;;;18.25;15.00;;;;;;;;5028692;28;13581;-81
2022/12/10 01:40:37;;;;;;;;;15.00;15.00;;;;;;;;5043623;28;13578;-82
2022/12/10 01:43:02;;;;;;;;;15.50;15.50;;;;;;;;5043340;28;13647;-81
2022/12/10 01:45:27;;;;;;;;;16.00;16.00;;;;;;;;5027045;28;13791;-82
2022/12/10 01:47:52;;;;;;;;;16.75;15.00;;;;;;;;5043738;28;13433;-83
2022/12/10 01:50:18;;;;;;;;;20.25;17.50;;;;;;;;5028305;28;13654;-82
2022/12/10 01:52:43;;;;;;;;;15.00;14.00;;;;;;;;5028557;28;13565;-82
2022/12/10 01:55:28;;;;;;;;;12.00;12.00;;;;;;;;5028376;28;13589;-82
2022/12/10 01:57:54;;;;;;;;;14.00;14.00;;;;;;;;5028098;28;13650;-83
2022/12/10 02:00:20;;;;;;;;;12.75;11.00;;;;;;;;5028104;28;13478;-82
2022/12/10 02:02:55;;;;;;;;;14.00;9.75;;;;;;;;5031485;28;11479;-86
2022/12/10 02:05:20;;;;;;;;;11.75;10.25;;;;;;;;5031987;28;8784;-86
2022/12/10 02:07:54;;;;;;;;;13.00;11.25;;;;;;;;5028628;28;13813;-85
2022/12/10 02:10:43;;;;;;;;;9.75;9.75;;;;;;;;5031768;28;8808;-87
2022/12/10 02:13:11;;;;;;;;;13.75;7.25;;;;;;;;5031684;28;11425;-79
2022/12/10 02:15:42;;;;;;;;;14.75;14.75;;;;;;;;5027201;28;13386;-77
2022/12/10 02:18:31;;;;;;;;;14.75;9.75;;;;;;;;5030941;28;11521;-76
2022/12/10 02:20:58;;;;;;;;;12.25;10.25;;;;;;;;5029432;28;13330;-77
2022/12/10 02:23:30;;;;;;;;;10.75;8.25;;;;;;;;5030306;28;11508;-78
2022/12/10 02:26:04;;;;;;;;;11.50;11.25;;;;;;;;5027333;28;13256;-77
2022/12/10 02:28:32;;;;;;;;;7.00;7.00;;;;;;;;5027337;28;13556;-78
2022/12/10 02:30:58;;;;;;;;;13.50;10.75;;;;;;;;5022775;28;13307;-78
2022/12/10 02:33:26;;;;;;;;;7.75;7.75;;;;;;;;5027156;28;13652;-77
2022/12/10 02:35:52;;;;;;;;;10.75;7.00;;;;;;;;5029033;28;11092;-76
2022/12/10 02:38:25;;;;;;;;;14.25;12.50;;;;;;;;5025887;28;13947;-77
2022/12/10 02:40:54;;;;;;;;;5.00;5.00;;;;;;;;5030162;28;10968;-77
2022/12/10 02:43:21;;;;;;;;;12.25;12.00;;;;;;;;5023395;28;13323;-78
2022/12/10 02:45:46;;;;;;;;;13.00;10.50;;;;;;;;5025680;28;13556;-78
2022/12/10 02:48:13;;;;;;;;;10.75;10.00;;;;;;;;5027074;28;13620;-77
2022/12/10 02:50:38;;;;;;;;;8.00;8.00;;;;;;;;5028284;28;8800;-76
2022/12/10 02:53:04;;;;;;;;;15.00;13.50;;;;;;;;5027132;28;13424;-77
2022/12/10 02:55:37;;;;;;;;;7.75;6.25;;;;;;;;5029447;28;8827;-76
2022/12/10 02:58:09;;;;;;;;;10.25;8.50;;;;;;;;5030590;28;8807;-77
2022/12/10 03:00:39;;;;;;;;;10.00;7.00;;;;;;;;5030241;28;11227;-78
2022/12/10 03:03:13;;;;;;;;;11.25;10.00;;;;;;;;5030839;28;11072;-76
2022/12/10 03:05:53;;;;;;;;;9.00;8.25;;;;;;;;5027374;28;13509;-76
2022/12/10 03:08:20;;;;;;;;;8.50;7.50;;;;;;;;5030725;28;11438;-77
2022/12/10 03:10:55;;;;;;;;;9.50;8.50;;;;;;;;5027111;28;13681;-74
2022/12/10 03:13:23;;;;;;;;;8.00;8.00;;;;;;;;5026760;28;13500;-77
2022/12/10 03:15:50;;;;;;;;;13.50;13.50;;;;;;;;5026751;28;13449;-77
2022/12/10 03:18:17;;;;;;;;;11.25;9.50;;;;;;;;5029850;28;11504;-77
2022/12/10 03:20:44;;;;;;;;;9.25;7.00;;;;;;;;5028828;28;11492;-77
2022/12/10 03:23:11;;;;;;;;;15.00;15.00;;;;;;;;5026941;28;13503;-77
2022/12/10 03:25:37;;;;;;;;;12.75;8.75;;;;;;;;5026942;28;13589;-76
2022/12/10 03:28:03;;;;;;;;;6.00;6.00;;;;;;;;5030727;28;11511;-75
2022/12/10 03:30:31;;;;;;;;;7.25;7.25;;;;;;;;5030001;28;11095;-75
2022/12/10 03:32:57;;;;;;;;;6.50;6.50;;;;;;;;5030280;28;11488;-75
2022/12/10 03:35:23;;;;;;;;;8.00;7.75;;;;;;;;5025163;28;13468;-75
2022/12/10 03:37:49;;;;;;;;;7.00;7.00;;;;;;;;5027004;28;13553;-75
2022/12/10 03:40:17;;;;;;;;;7.25;6.75;;;;;;;;5030207;28;12383;-75
2022/12/10 03:42:42;;;;;;;;;8.50;8.00;;;;;;;;5026086;28;13468;-75
2022/12/10 03:45:08;;;;;;;;;7.75;5.00;;;;;;;;5040413;28;13567;-75
2022/12/10 03:47:33;;;;;;;;;5.00;5.00;;;;;;;;5029363;28;8792;-75
2022/12/10 03:49:58;;;;;;;;;6.25;5.75;;;;;;;;5029912;28;8846;-75
2022/12/10 03:52:23;;;;;;;;;4.50;4.50;;;;;;;;5029554;28;9530;-75
2022/12/10 03:54:48;;;;;;;;;6.00;6.00;;;;;;;;5028411;28;8828;-75
2022/12/10 03:57:14;;;;;;;;;5.75;5.75;;;;;;;;5029897;28;8807;-75
2022/12/10 03:59:39;;;;;;;;;4.50;3.00;;;;;;;;5029759;28;8819;-75
2022/12/10 04:02:04;;;;;;;;;3.50;3.50;;;;;;;;5031020;28;8872;-75
2022/12/10 04:04:30;;;;;;;;;4.50;4.50;;;;;;;;5034206;28;8788;-75
2022/12/10 04:06:55;;;;;;;;;6.00;5.00;;;;;;;;5033528;28;8796;-75
2022/12/10 04:09:20;;;;;;;;;5.50;4.50;;;;;;;;5033474;28;8819;-75
2022/12/10 04:11:45;;;;;;;;;3.00;3.00;;;;;;;;5033747;28;8815;-75
2022/12/10 04:16:56;;;;;;;;;6.00;5.00;;;;;;;;5033648;28;8792;-75
2022/12/10 04:19:21;;;;;;;;;7.25;3.00;;;;;;;;5030594;28;13490;-74
2022/12/10 04:27:18;;;;;;;;;6.00;6.00;;;;;;;;5033365;28;11406;-77
2022/12/10 04:29:44;;;;;;;;;6.60;6.60;;;;;;;;5029419;28;13658;-77
2022/12/10 04:32:09;;;;;;;;;4.50;4.00;;;;;;;;5033279;28;8918;-77
2022/12/10 04:34:35;;;;;;;;;4.00;3.50;;;;;;;;5033384;28;8798;-77
2022/12/10 04:37:01;;;;;;;;;7.50;4.50;;;;;;;;5028821;28;13442;-77
2022/12/10 04:39:27;;;;;;;;;4.75;4.00;;;;;;;;5028903;28;13551;-77
2022/12/10 04:41:52;;;;;;;;;3.00;3.00;;;;;;;;5032802;28;12149;-76
2022/12/10 04:44:18;;;;;;;;;4.50;4.50;;;;;;;;5032472;28;9627;-77
2022/12/10 04:46:43;;;;;;;;;5.50;3.00;;;;;;;;5048651;28;8906;-77
2022/12/10 04:49:08;;;;;;;;;2.75;2.75;;;;;;;;5033225;28;8784;-76
2022/12/10 04:51:34;;;;;;;;;2.00;2.00;;;;;;;;5033131;28;8800;-76
2022/12/10 04:54:00;;;;;;;;;5.25;3.00;;;;;;;;5048264;28;8823;-77
2022/12/10 04:56:25;;;;;;;;;2.75;1.75;;;;;;;;5030058;28;14155;-76
2022/12/10 04:58:50;;;;;;;;;4.75;4.00;;;;;;;;5028929;28;13465;-76
2022/12/10 05:01:17;;;;;;;;;5.50;4.00;;;;;;;;5029191;28;14301;-76
2022/12/10 05:03:43;;;;;;;;;5.00;4.00;;;;;;;;5048274;28;8792;-77
2022/12/10 05:06:10;;;;;;;;;5.00;5.00;;;;;;;;5028167;28;14834;-78
2022/12/10 05:08:36;;;;;;;;;5.25;5.00;;;;;;;;5032742;28;8776;-77
2022/12/10 05:11:02;;;;;;;;;3.00;3.00;;;;;;;;5032700;28;11426;-77
2022/12/10 05:13:27;;;;;;;;;9.00;8.00;;;;;;;;5028210;28;14183;-77
2022/12/10 05:15:53;;;;;;;;;3.50;3.00;;;;;;;;5029148;28;13478;-77
2022/12/10 05:18:18;;;;;;;;;2.50;2.50;;;;;;;;5031968;28;8825;-75
2022/12/10 05:20:43;;;;;;;;;2.50;2.50;;;;;;;;5032313;28;8908;-76
2022/12/10 05:26:03;;;;;;;;;6.00;5.25;;;;;;;;5032622;28;8918;-75
2022/12/10 05:28:29;;;;;;;;;6.60;6.60;;;;;;;;5028662;28;13491;-76
2022/12/10 05:30:55;;;;;;;;;4.50;3.00;;;;;;;;5032136;28;8804;-78
2022/12/10 05:33:20;;;;;;;;;11.00;8.00;;;;;;;;5028572;28;15137;-76
2022/12/10 05:35:59;;;;;;;;;6.00;6.00;;;;;;;;5030592;28;8946;-76
2022/12/10 05:38:25;;;;;;;;;3.50;3.00;;;;;;;;5032202;28;8826;-76
2022/12/10 05:40:51;;;;;;;;;5.00;5.00;;;;;;;;5047238;28;11448;-77
2022/12/10 05:43:16;;;;;;;;;8.50;3.50;;;;;;;;5032525;28;8796;-77
2022/12/10 05:45:42;;;;;;;;;5.50;5.50;;;;;;;;5028540;28;13466;-77
2022/12/10 05:48:09;;;;;;;;;4.00;4.00;;;;;;;;5032382;28;8808;-77
2022/12/10 05:50:34;;;;;;;;;9.00;7.25;;;;;;;;5043852;28;13531;-77
2022/12/10 05:52:59;;;;;;;;;4.25;4.25;;;;;;;;5028754;28;13476;-77
2022/12/10 05:55:26;;;;;;;;;3.00;3.00;;;;;;;;5047167;28;8807;-77
2022/12/10 05:57:51;;;;;;;;;10.00;6.75;;;;;;;;5032102;28;9534;-76
2022/12/10 06:00:17;;;;;;;;;7.25;5.00;;;;;;;;5031665;28;11504;-76
2022/12/10 06:02:42;;;;;;;;;3.50;3.50;;;;;;;;5031755;28;8792;-76
2022/12/10 06:05:07;;;;;;;;;8.50;7.00;;;;;;;;5031388;28;8791;-76
2022/12/10 06:07:32;;;;;;;;;6.25;3.00;;;;;;;;5031902;28;8873;-76
2022/12/10 06:09:58;;;;;;;;;5.25;4.50;;;;;;;;5031278;28;8780;-76
2022/12/10 06:12:23;;;;;;;;;5.50;4.00;;;;;;;;5031621;28;9574;-76
2022/12/10 06:14:48;;;;;;;;;3.00;3.00;;;;;;;;5030148;28;8815;-76
2022/12/10 06:17:13;;;;;;;;;5.25;5.25;;;;;;;;5031696;28;8794;-76
2022/12/10 06:19:39;;;;;;;;;6.00;5.00;;;;;;;;5031557;28;8930;-75
2022/12/10 06:22:04;;;;;;;;;10.00;5.50;;;;;;;;5031532;28;8823;-76
2022/12/10 06:24:29;;;;;;;;;3.50;3.50;;;;;;;;5030541;28;8819;-75
2022/12/10 06:26:54;;;;;;;;;8.50;7.00;;;;;;;;5031538;28;8792;-76
2022/12/10 06:29:20;;;;;;;;;9.50;7.00;;;;;;;;5031044;28;8916;-76
2022/12/10 06:31:45;;;;;;;;;12.00;10.00;;;;;;;;5031424;28;8885;-76
2022/12/10 06:34:10;;;;;;;;;10.50;9.75;;;;;;;;5031299;28;8826;-76
2022/12/10 06:36:36;;;;;;;;;9.75;6.75;;;;;;;;5031221;28;8788;-76
2022/12/10 06:39:02;;;;;;;;;9.75;7.00;;;;;;;;5030943;28;8815;-75
2022/12/10 06:41:27;;;;;;;;;7.50;7.50;;;;;;;;5029831;28;8832;-77
2022/12/10 06:43:52;;;;;;;;;11.75;9.00;;;;;;;;5030848;28;11418;-77
2022/12/10 06:46:19;;;;;;;;;11.00;10.75;;;;;;;;5031072;28;8784;-77
2022/12/10 06:48:44;;;;;;;;;10.25;10.00;;;;;;;;5030925;28;8788;-77
2022/12/10 06:51:11;;;;;;;;;12.50;11.00;;;;;;;;5031162;28;11496;-77
2022/12/10 06:53:36;;;;;;;;;14.00;12.00;;;;;;;;5027808;28;13595;-77
2022/12/10 06:56:03;;;;;;;;;16.00;15.00;;;;;;;;5031299;28;12209;-77
2022/12/10 06:58:29;;;;;;;;;13.50;13.50;;;;;;;;5027809;28;13533;-77
2022/12/10 07:00:54;;;;;;;;;18.25;14.25;;;;;;;;5031475;28;11518;-77
2022/12/10 07:03:19;;;;;;;;;13.25;11.75;;;;;;;;5028114;28;13532;-78
2022/12/10 07:05:44;;;;;;;;;12.00;12.00;;;;;;;;5030801;28;8776;-78
2022/12/10 07:08:10;;;;;;;;;17.50;12.00;;;;;;;;5031103;28;8768;-79
2022/12/10 07:10:36;;;;;;;;;15.75;13.50;;;;;;;;5030861;28;8827;-78
2022/12/10 07:13:01;;;;;;;;;15.50;13.75;;;;;;;;5030710;28;8870;-77
2022/12/10 07:15:28;;;;;;;;;11.00;10.75;;;;;;;;5029343;28;11523;-78
2022/12/10 07:17:53;;;;;;;;;14.75;14.75;;;;;;;;5030109;28;8800;-78
2022/12/10 07:20:18;;;;;;;;;15.50;15.50;;;;;;;;5030168;28;11735;-76
2022/12/10 07:22:44;;;;;;;;;18.75;16.50;;;;;;;;5030521;28;8824;-72
2022/12/10 07:25:09;;;;;;;;;17.50;14.25;;;;;;;;5023143;28;8858;-76
2022/12/10 07:27:34;;;;;;;;;21.00;18.00;;;;;;;;5015542;28;8875;-75
2022/12/10 07:29:59;;;;;;;;;15.50;12.00;;;;;;;;5011165;28;8798;-85
2022/12/10 07:32:26;;;;;;;;;19.00;17.00;;;;;;;;5016545;28;8792;-79
2022/12/10 07:34:51;;;;;;;;;21.50;19.00;;;;;;;;5030521;28;8889;-79
2022/12/10 07:37:17;;;;;;;;;17.75;13.75;;;;;;;;5025219;28;11583;-82
2022/12/10 07:39:42;;;;;;;;;11.50;11.50;;;;;;;;5011091;28;8794;-85
2022/12/10 07:42:08;;;;;;;;;20.25;17.50;;;;;;;;5028177;28;8851;-85
2022/12/10 07:44:33;;;;;;;;;24.50;20.00;;;;;;;;5026814;28;13585;-78
2022/12/10 07:46:58;;;;;;;;;25.50;20.75;;;;;;;;5030351;28;8885;-82
2022/12/10 07:49:23;;;;;;;;;20.75;18.00;;;;;;;;5025807;28;8860;-80
2022/12/10 07:51:49;;;;;;;;;21.50;18.25;;;;;;;;5010491;28;9623;-76
2022/12/10 07:54:15;;;;;;;;;22.00;17.25;;;;;;;;5008918;28;8830;-80
2022/12/10 07:56:40;;;;;;;;;23.25;19.25;;;;;;;;5007937;28;13725;-81
2022/12/10 07:59:06;;;;;;;;;30.75;30.75;;;;;;;;5025484;28;13585;-85
2022/12/10 08:01:31;;;;;;;;;25.25;21.00;;;;;;;;5030138;28;9009;-83
2022/12/10 08:03:57;;;;;;;;;21.50;17.25;;;;;;;;5029883;28;8812;-79
2022/12/10 08:06:22;;;;;;;;;23.75;22.00;;;;;;;;5028267;28;8828;-80
2022/12/10 08:08:49;;;;;;;;;25.75;21.75;;;;;;;;5028129;28;8846;-77
2022/12/10 08:11:15;;;;;;;;;23.00;20.50;;;;;;;;5024147;28;8896;-78
2022/12/10 08:13:41;;;;;;;;;22.00;20.25;;;;;;;;5026940;28;11571;-78
2022/12/10 08:16:09;;;;;;;;;23.75;20.25;;;;;;;;5025278;28;11601;-79
2022/12/10 08:18:35;;;;;;;;;29.00;22.50;;;;;;;;5028137;28;11664;-77
2022/12/10 08:21:16;;;;;;;;;26.25;22.00;;;;;;;;5028002;28;11667;-75
2022/12/10 08:23:42;;;;;;;;;23.25;22.00;;;;;;;;5025498;28;8792;-77
2022/12/10 08:26:18;;;;;;;;;21.50;21.50;;;;;;;;5042930;28;12305;-77
2022/12/10 08:28:44;;;;;;;;;24.00;20.75;;;;;;;;5025889;28;9014;-74
2022/12/10 08:31:11;;;;;;;;;21.50;18.25;;;;;;;;5027847;28;11633;-78
2022/12/10 08:33:37;;;;;;;;;23.75;17.50;;;;;;;;5028073;28;8854;-74
2022/12/10 08:36:03;;;;;;;;;24.25;18.00;;;;;;;;5027741;28;11525;-78
2022/12/10 08:38:28;;;;;;;;;22.00;19.75;;;;;;;;5027678;28;11532;-76
2022/12/10 08:40:54;;;;;;;;;25.00;20.25;;;;;;;;5027320;28;11610;-78
2022/12/10 08:43:19;;;;;;;;;24.25;23.00;;;;;;;;5025027;28;8834;-76
2022/12/10 08:45:45;;;;;;;;;22.00;21.50;;;;;;;;5027742;28;8812;-77
2022/12/10 08:48:10;;;;;;;;;33.25;26.50;;;;;;;;5028871;28;9486;-75
2022/12/10 08:50:36;;;;;;;;;23.50;23.50;;;;;;;;5031591;28;8815;-76
2022/12/10 08:53:01;;;;;;;;;27.25;24.00;;;;;;;;5028578;28;8902;-73
2022/12/10 08:55:26;;;;;;;;;29.00;27.50;;;;;;;;5030063;28;8807;-72
2022/12/10 08:57:52;;;;;;;;;24.25;24.25;;;;;;;;5029344;28;8836;-69
2022/12/10 09:00:18;;;;;;;;;27.00;24.75;;;;;;;;5030980;28;9581;-77
2022/12/10 09:02:44;;;;;;;;;22.25;19.50;;;;;;;;5030496;28;9619;-77
2022/12/10 09:05:09;;;;;;;;;24.00;21.75;;;;;;;;5028470;28;11678;-82
2022/12/10 09:07:34;;;;;;;;;24.50;22.50;;;;;;;;5029807;28;8985;-81
2022/12/10 09:09:59;;;;;;;;;24.25;23.75;;;;;;;;5032540;28;8890;-79
2022/12/10 09:12:25;;;;;;;;;24.50;23.25;;;;;;;;5030997;28;8823;-77
2022/12/10 09:14:51;;;;;;;;;24.00;23.75;;;;;;;;5029942;28;8839;-80
2022/12/10 09:17:16;;;;;;;;;31.50;28.00;;;;;;;;5030658;28;9518;-78
2022/12/10 09:19:41;;;;;;;;;32.00;24.00;;;;;;;;5031089;28;8815;-79
2022/12/10 09:22:06;;;;;;;;;27.50;23.00;;;;;;;;5030532;28;8925;-76
2022/12/10 09:24:32;;;;;;;;;28.00;23.50;;;;;;;;5020240;28;8803;-84
2022/12/10 09:26:57;;;;;;;;;23.75;19.50;;;;;;;;5027047;28;8925;-80
2022/12/10 09:29:22;;;;;;;;;26.25;23.00;;;;;;;;5030022;28;8823;-79
2022/12/10 09:31:51;;;;;;;;;25.75;22.25;;;;;;;;5030888;28;8913;-86
2022/12/10 09:34:17;;;;;;;;;22.00;20.50;;;;;;;;5027052;28;8803;-87
2022/12/10 09:36:42;;;;;;;;;20.75;19.25;;;;;;;;5029989;28;11609;-75
2022/12/10 09:39:07;;;;;;;;;23.50;21.50;;;;;;;;5028915;28;8792;-76
2022/12/10 09:41:36;;;;;;;;;28.50;24.75;;;;;;;;5031048;28;8815;-75
2022/12/10 09:44:01;;;;;;;;;26.00;25.00;;;;;;;;5027691;28;8815;-75
2022/12/10 09:46:45;;;;;;;;;26.25;23.50;;;;;;;;5031219;28;11618;-74
2022/12/10 09:49:19;;;;;;;;;24.25;20.75;;;;;;;;5030429;28;8823;-75
2022/12/10 09:51:45;;;;;;;;;23.50;21.50;;;;;;;;5029571;28;11659;-74
2022/12/10 09:54:30;;;;;;;;;26.00;23.50;;;;;;;;5029180;28;11618;-72
2022/12/10 09:56:57;;;;;;;;;29.25;24.00;;;;;;;;5037064;28;8969;-75
2022/12/10 09:59:29;;;;;;;;;23.25;18.50;;;;;;;;5030688;28;11516;-74
2022/12/10 10:02:18;;;;;;;;;28.00;24.25;;;;;;;;5030520;28;11571;-76
2022/12/10 10:04:43;;;;;;;;;19.00;18.00;;;;;;;;5026129;28;12290;-75
2022/12/10 10:07:15;;;;;;;;;22.25;19.50;;;;;;;;5010925;28;11680;-75
2022/12/10 10:09:41;;;;;;;;;24.00;22.50;;;;;;;;5010870;28;8799;-74
2022/12/10 10:12:14;;;;;;;;;27.50;21.50;;;;;;;;5009907;28;11567;-75
2022/12/10 10:14:40;;;;;;;;;23.25;20.00;;;;;;;;5023842;28;8830;-75
2022/12/10 10:17:11;;;;;;;;;19.75;19.00;;;;;;;;5031031;28;11600;-78
2022/12/10 10:19:38;;;;;;;;;22.75;20.50;;;;;;;;5031543;28;11495;-73
2022/12/10 10:22:04;;;;;;;;;21.75;21.25;;;;;;;;5030886;28;12293;-84
2022/12/10 10:24:36;;;;;;;;;26.25;25.50;;;;;;;;5030437;28;11552;-78
2022/12/10 10:27:12;;;;;;;;;23.00;21.50;;;;;;;;5030550;28;9545;-78
2022/12/10 10:29:38;;;;;;;;;23.00;21.75;;;;;;;;5029045;28;11627;-77
2022/12/10 10:32:14;;;;;;;;;26.50;24.50;;;;;;;;5030097;28;11523;-74
2022/12/10 10:34:40;;;;;;;;;24.25;22.25;;;;;;;;5031345;28;8804;-78
2022/12/10 10:37:05;;;;;;;;;24.25;20.25;;;;;;;;5031000;28;11635;-79
2022/12/10 10:39:31;;;;;;;;;21.25;19.00;;;;;;;;5030837;28;8808;-79
2022/12/10 10:41:58;;;;;;;;;19.00;17.50;;;;;;;;5031286;28;9553;-76
2022/12/10 10:44:26;;;;;;;;;23.25;22.00;;;;;;;;5030745;28;11611;-77
2022/12/10 10:46:52;;;;;;;;;20.00;18.50;;;;;;;;5028855;28;12529;-74
2022/12/10 10:49:29;;;;;;;;;19.75;18.50;;;;;;;;5027753;28;11538;-74
2022/12/10 10:51:58;;;;;;;;;18.75;15.00;;;;;;;;5030109;28;11583;-73
2022/12/10 10:54:31;;;;;;;;;17.75;17.00;;;;;;;;5030374;28;11713;-74
2022/12/10 10:56:56;;;;;;;;;18.75;15.00;;;;;;;;5029231;28;11535;-74
2022/12/10 10:59:40;;;;;;;;;18.50;18.00;;;;;;;;5027169;28;12474;-75
2022/12/10 11:02:11;;;;;;;;;20.50;17.00;;;;;;;;5030266;28;8811;-74
2022/12/10 11:04:44;;;;;;;;;15.00;15.00;;;;;;;;5028888;28;11663;-74
2022/12/10 11:07:20;;;;;;;;;19.00;15.75;;;;;;;;5030343;28;11608;-74
2022/12/10 11:09:46;;;;;;;;;17.50;16.75;;;;;;;;5026629;28;11611;-74
2022/12/10 11:12:43;;;;;;;;;13.25;13.25;;;;;;;;5029801;28;12304;-74
2022/12/10 11:15:32;;;;;;;;;17.75;15.25;;;;;;;;5047653;28;8836;-73
2022/12/10 11:17:57;;;;;;;;;19.25;17.00;;;;;;;;5020631;28;11487;-72
2022/12/10 11:20:24;;;;;;;;;25.00;18.75;;;;;;;;5047321;28;11559;-72
2022/12/10 11:22:51;;;;;;;;;20.25;17.75;;;;;;;;5047223;28;8808;-71
2022/12/10 11:25:17;;;;;;;;;19.25;16.00;;;;;;;;5046629;28;11566;-73
2022/12/10 11:27:45;;;;;;;;;16.75;13.50;;;;;;;;5028140;28;11493;-72
2022/12/10 11:30:21;;;;;;;;;16.00;14.50;;;;;;;;5028137;28;11523;-74
2022/12/10 11:33:05;;;;;;;;;17.00;14.50;;;;;;;;5047356;28;11449;-73
2022/12/10 11:35:49;;;;;;;;;12.00;8.00;;;;;;;;5047372;28;11587;-74
2022/12/10 11:38:14;;;;;;;;;19.25;15.00;;;;;;;;5044969;28;11504;-73
2022/12/10 11:40:57;;;;;;;;;17.75;16.50;;;;;;;;5047111;28;11519;-76
2022/12/10 11:43:22;;;;;;;;;18.25;17.25;;;;;;;;5045643;28;8839;-73
2022/12/10 11:45:51;;;;;;;;;24.25;23.00;;;;;;;;5027023;28;11489;-74
2022/12/10 11:48:26;;;;;;;;;18.25;17.50;;;;;;;;5031514;28;8828;-75
2022/12/10 11:51:03;;;;;;;;;23.50;18.50;;;;;;;;5037791;28;11519;-75
2022/12/10 11:53:47;;;;;;;;;22.25;19.00;;;;;;;;5029959;28;12839;-76
2022/12/10 11:56:13;;;;;;;;;21.25;19.00;;;;;;;;5030125;28;12407;-76
2022/12/10 11:58:53;;;;;;;;;26.50;22.50;;;;;;;;5027266;28;11736;-78
2022/12/10 12:01:18;;;;;;;;;19.50;18.00;;;;;;;;5029548;28;8839;-76
2022/12/10 12:04:02;;;;;;;;;24.25;18.00;;;;;;;;5028171;28;11592;-76
2022/12/10 12:06:32;;;;;;;;;22.75;18.75;;;;;;;;5029781;28;8780;-75
2022/12/10 12:08:57;;;;;;;;;20.25;20.25;;;;;;;;5026870;28;11534;-73
2022/12/10 12:11:42;;;;;;;;;18.75;16.00;;;;;;;;5029534;28;11534;-72
2022/12/10 12:14:08;;;;;;;;;20.25;16.25;;;;;;;;5032380;28;9430;-74
2022/12/10 13:50:53;;;;;;;;;10.00;7.50;;;;;;;;5125205;27;13387;-78
2022/12/10 13:53:45;;;;;;;;;10.75;7.50;;;;;;;;5125464;27;12205;-76
2022/12/10 13:56:27;;;;;;;;;11.50;10.50;;;;;;;;5126483;27;11399;-77
2022/12/10 13:59:11;;;;;;;;;8.00;5.75;;;;;;;;5128086;27;11615;-77
2022/12/10 14:01:55;;;;;;;;;6.25;4.50;;;;;;;;5125501;27;11619;-79
2022/12/10 14:04:39;;;;;;;;;7.00;7.00;;;;;;;;5123056;27;13548;-78
2022/12/10 14:07:06;;;;;;;;;13.00;9.50;;;;;;;;5123686;27;13395;-77
2022/12/10 14:09:34;;;;;;;;;10.25;10.25;;;;;;;;5124143;27;13473;-76
2022/12/10 14:12:05;;;;;;;;;11.25;8.00;;;;;;;;5121896;27;13463;-76
2022/12/10 14:14:33;;;;;;;;;13.33;12.33;;;;;;;;5124162;27;14181;-76
2022/12/10 14:17:04;;;;;;;;;12.20;11.00;;;;;;;;5123975;27;14176;-75
2022/12/10 14:19:29;;;;;;;;;9.00;9.00;;;;;;;;5123620;27;13492;-76
2022/12/10 14:21:55;;;;;;;;;11.00;11.00;;;;;;;;5121671;27;13471;-78
2022/12/10 14:24:32;;;;;;;;;13.50;12.00;;;;;;;;5124257;27;13430;-79
2022/12/10 14:26:59;;;;;;;;;9.40;8.80;;;;;;;;5124155;27;13439;-80
2022/12/10 14:29:25;;;;;;;;;18.80;17.00;;;;;;;;5121009;27;13441;-78
2022/12/10 14:31:50;;;;;;;;;15.00;15.00;;;;;;;;5120990;27;13536;-77
2022/12/10 14:34:22;;;;;;;;;17.00;15.75;;;;;;;;5121976;27;13491;-77
2022/12/10 14:36:49;;;;;;;;;26.67;25.00;;;;;;;;5122288;27;13562;-77
2022/12/10 14:39:20;;;;;;;;;11.25;11.25;;;;;;;;5123388;27;13672;-79
2022/12/10 14:41:47;;;;;;;;;12.00;11.00;;;;;;;;5121987;27;14689;-82
2022/12/10 14:44:15;;;;;;;;;12.00;11.20;;;;;;;;5117613;27;13420;-80
2022/12/10 14:46:41;;;;;;;;;15.00;15.00;;;;;;;;5103504;28;13493;-77
2022/12/10 14:49:08;;;;;;;;;16.00;15.00;;;;;;;;5102769;28;13599;-77
2022/12/10 14:51:36;;;;;;;;;15.25;14.00;;;;;;;;5089259;28;13440;-75
2022/12/10 14:54:02;;;;;;;;;13.75;12.75;;;;;;;;5109181;28;13576;-75
2022/12/10 14:56:32;;;;;;;;;12.67;9.67;;;;;;;;5109542;28;13422;-75
2022/12/10 14:59:19;;;;;;;;;10.50;8.00;;;;;;;;5109665;27;13537;-74
2022/12/10 15:01:49;;;;;;;;;11.50;10.50;;;;;;;;5107854;28;13558;-76
2022/12/10 15:04:18;;;;;;;;;11.00;11.00;;;;;;;;5089458;28;13460;-76
2022/12/10 15:06:44;;;;;;;;;14.75;14.25;;;;;;;;5088842;28;13533;-74
2022/12/10 15:09:15;;;;;;;;;12.00;12.00;;;;;;;;5088787;28;13491;-73
2022/12/10 15:11:40;;;;;;;;;16.60;15.80;;;;;;;;5092318;28;14334;-72
2022/12/10 15:14:05;;;;;;;;;17.00;17.00;;;;;;;;5108754;28;13679;-79
2022/12/10 15:16:31;;;;;;;;;9.00;9.00;;;;;;;;5109132;28;13486;-72
2022/12/10 15:19:06;;;;;;;;;12.25;12.25;;;;;;;;5108891;28;14206;-77
2022/12/10 15:21:31;;;;;;;;;12.60;8.00;;;;;;;;5105839;28;14245;-75
2022/12/10 15:24:14;;;;;;;;;12.25;11.25;;;;;;;;5107591;28;13585;-86
2022/12/10 15:26:42;;;;;;;;;11.80;11.80;;;;;;;;5106641;28;13806;-73
2022/12/10 15:29:25;;;;;;;;;13.75;12.75;;;;;;;;5107478;28;13489;-74
2022/12/10 15:31:55;;;;;;;;;13.40;11.40;;;;;;;;5105792;28;13446;-72
2022/12/10 15:34:20;;;;;;;;;11.20;9.40;;;;;;;;5087371;28;14277;-73
2022/12/10 15:36:50;;;;;;;;;12.75;10.50;;;;;;;;5095564;28;13458;-76
2022/12/10 15:39:20;;;;;;;;;14.00;13.00;;;;;;;;5107731;28;13471;-76
2022/12/10 15:41:47;;;;;;;;;12.60;11.00;;;;;;;;5009702;28;13545;-75
2022/12/10 15:44:21;;;;;;;;;12.80;11.40;;;;;;;;5066645;28;13613;-75
2022/12/10 15:46:48;;;;;;;;;10.60;10.60;;;;;;;;5062591;28;13739;-73
2022/12/10 15:49:14;;;;;;;;;21.40;19.20;;;;;;;;5067481;28;14183;-73
2022/12/10 16:07:38;;;;;;;;;17.40;16.00;;;;;;;;6040125;23;13322;-76
2022/12/10 16:10:03;;;;;;;;;17.00;16.67;;;;;;;;4960581;28;13695;-76
2022/12/10 16:12:29;;;;;;;;;15.00;14.40;;;;;;;;4969078;28;14017;-74
2022/12/10 16:14:59;;;;;;;;;16.75;14.00;;;;;;;;4945509;28;13588;-78
2022/12/10 16:17:25;;;;;;;;;12.25;12.25;;;;;;;;4949546;28;14412;-80
2022/12/10 16:19:50;;;;;;;;;15.00;14.80;;;;;;;;4949939;28;13598;-76
2022/12/10 16:22:16;;;;;;;;;12.00;12.00;;;;;;;;4949845;28;13721;-76
2022/12/10 16:24:41;;;;;;;;;12.25;12.25;;;;;;;;4948036;28;13625;-74
2022/12/10 16:27:13;;;;;;;;;14.25;13.75;;;;;;;;4966161;28;13698;-74
2022/12/10 16:29:38;;;;;;;;;12.75;12.00;;;;;;;;4968485;28;13692;-74
2022/12/10 16:32:04;;;;;;;;;15.00;12.00;;;;;;;;4968616;28;13689;-73
2022/12/10 16:34:29;;;;;;;;;17.67;16.67;;;;;;;;4968368;28;13557;-72